sensor_id;sensor_type;location;lat;lon;timestamp;temperature;humidity
36690;DHT22;22676;51.120;3.702;2023-11-21T00:01:54;23.90;46.90
36690;DHT22;22676;51.120;3.702;2023-11-21T00:04:20;23.90;46.80
36690;DHT22;22676;51.120;3.702;2023-11-21T00:06:46;24.00;46.80
36690;DHT22;22676;51.120;3.702;2023-11-21T00:09:13;23.90;46.80
36690;DHT22;22676;51.120;3.702;2023-11-21T00:11:41;24.00;46.80
36690;DHT22;22676;51.120;3.702;2023-11-21T00:14:07;24.00;46.80
36690;DHT22;22676;51.120;3.702;2023-11-21T00:16:33;24.00;46.80
36690;DHT22;22676;51.120;3.702;2023-11-21T00:18:59;24.00;46.80
36690;DHT22;22676;51.120;3.702;2023-11-21T00:21:25;24.00;46.70
36690;DHT22;22676;51.120;3.702;2023-11-21T00:23:51;24.00;46.70
36690;DHT22;22676;51.120;3.702;2023-11-21T00:26:16;24.00;46.60
36690;DHT22;22676;51.120;3.702;2023-11-21T00:28:42;24.10;46.70
36690;DHT22;22676;51.120;3.702;2023-11-21T00:31:08;24.00;46.70
36690;DHT22;22676;51.120;3.702;2023-11-21T00:33:34;24.00;46.70
36690;DHT22;22676;51.120;3.702;2023-11-21T00:35:59;24.10;46.60
36690;DHT22;22676;51.120;3.702;2023-11-21T00:38:26;24.10;46.60
36690;DHT22;22676;51.120;3.702;2023-11-21T00:40:52;24.10;45.50
36690;DHT22;22676;51.120;3.702;2023-11-21T00:43:24;24.00;45.20
36690;DHT22;22676;51.120;3.702;2023-11-21T00:45:49;23.90;45.60
36690;DHT22;22676;51.120;3.702;2023-11-21T00:48:15;23.80;46.60
36690;DHT22;22676;51.120;3.702;2023-11-21T00:50:41;23.80;46.80
36690;DHT22;22676;51.120;3.702;2023-11-21T00:53:06;23.80;46.70
36690;DHT22;22676;51.120;3.702;2023-11-21T00:55:33;23.90;46.60
36690;DHT22;22676;51.120;3.702;2023-11-21T00:58:00;24.00;46.60
36690;DHT22;22676;51.120;3.702;2023-11-21T01:00:28;24.00;46.50
36690;DHT22;22676;51.120;3.702;2023-11-21T01:02:54;24.00;46.60
36690;DHT22;22676;51.120;3.702;2023-11-21T01:05:19;24.00;46.50
36690;DHT22;22676;51.120;3.702;2023-11-21T01:07:45;24.10;46.50
36690;DHT22;22676;51.120;3.702;2023-11-21T01:10:11;24.10;46.50
36690;DHT22;22676;51.120;3.702;2023-11-21T01:12:38;24.10;46.40
36690;DHT22;22676;51.120;3.702;2023-11-21T01:15:05;24.10;46.40
36690;DHT22;22676;51.120;3.702;2023-11-21T01:17:33;24.10;46.30
36690;DHT22;22676;51.120;3.702;2023-11-21T01:20:00;24.10;46.30
36690;DHT22;22676;51.120;3.702;2023-11-21T01:22:26;24.20;46.30
36690;DHT22;22676;51.120;3.702;2023-11-21T01:24:53;24.20;46.30
36690;DHT22;22676;51.120;3.702;2023-11-21T01:27:19;24.20;46.30
36690;DHT22;22676;51.120;3.702;2023-11-21T01:29:44;24.20;46.30
36690;DHT22;22676;51.120;3.702;2023-11-21T01:32:10;24.20;46.30
36690;DHT22;22676;51.120;3.702;2023-11-21T01:34:36;24.20;46.30
36690;DHT22;22676;51.120;3.702;2023-11-21T01:37:02;24.20;46.30
36690;DHT22;22676;51.120;3.702;2023-11-21T01:39:30;24.20;46.10
36690;DHT22;22676;51.120;3.702;2023-11-21T01:41:56;24.10;45.00
36690;DHT22;22676;51.120;3.702;2023-11-21T01:44:24;24.10;45.00
36690;DHT22;22676;51.120;3.702;2023-11-21T01:46:50;24.00;46.30
36690;DHT22;22676;51.120;3.702;2023-11-21T01:49:17;24.00;46.50
36690;DHT22;22676;51.120;3.702;2023-11-21T01:51:47;24.00;46.40
36690;DHT22;22676;51.120;3.702;2023-11-21T01:54:15;24.10;46.40
36690;DHT22;22676;51.120;3.702;2023-11-21T01:56:43;24.10;46.30
36690;DHT22;22676;51.120;3.702;2023-11-21T01:59:10;24.10;46.30
36690;DHT22;22676;51.120;3.702;2023-11-21T02:01:37;24.10;46.30
36690;DHT22;22676;51.120;3.702;2023-11-21T02:04:03;24.10;46.30
36690;DHT22;22676;51.120;3.702;2023-11-21T02:06:29;24.20;46.30
36690;DHT22;22676;51.120;3.702;2023-11-21T02:08:56;24.20;46.20
36690;DHT22;22676;51.120;3.702;2023-11-21T02:11:22;24.20;46.20
36690;DHT22;22676;51.120;3.702;2023-11-21T02:13:47;24.20;46.20
36690;DHT22;22676;51.120;3.702;2023-11-21T02:16:15;24.20;46.10
36690;DHT22;22676;51.120;3.702;2023-11-21T02:18:41;24.20;46.10
36690;DHT22;22676;51.120;3.702;2023-11-21T02:21:07;24.30;46.10
36690;DHT22;22676;51.120;3.702;2023-11-21T02:23:33;24.20;46.10
36690;DHT22;22676;51.120;3.702;2023-11-21T02:25:59;24.30;46.10
36690;DHT22;22676;51.120;3.702;2023-11-21T02:28:24;24.30;46.20
36690;DHT22;22676;51.120;3.702;2023-11-21T02:30:53;24.30;46.20
36690;DHT22;22676;51.120;3.702;2023-11-21T02:33:21;24.30;46.20
36690;DHT22;22676;51.120;3.702;2023-11-21T02:35:47;24.30;46.30
36690;DHT22;22676;51.120;3.702;2023-11-21T02:38:13;24.30;46.20
36690;DHT22;22676;51.120;3.702;2023-11-21T02:40:39;24.30;45.20
36690;DHT22;22676;51.120;3.702;2023-11-21T02:43:05;24.20;44.90
36690;DHT22;22676;51.120;3.702;2023-11-21T02:45:31;24.20;45.10
36690;DHT22;22676;51.120;3.702;2023-11-21T02:47:57;24.10;46.10
36690;DHT22;22676;51.120;3.702;2023-11-21T02:50:23;24.10;46.30
36690;DHT22;22676;51.120;3.702;2023-11-21T02:52:49;24.10;46.20
36690;DHT22;22676;51.120;3.702;2023-11-21T02:55:15;24.20;46.30
36690;DHT22;22676;51.120;3.702;2023-11-21T02:57:40;24.20;46.20
36690;DHT22;22676;51.120;3.702;2023-11-21T03:00:07;24.20;46.30
36690;DHT22;22676;51.120;3.702;2023-11-21T03:02:33;24.20;46.30
36690;DHT22;22676;51.120;3.702;2023-11-21T03:05:02;24.20;46.30
36690;DHT22;22676;51.120;3.702;2023-11-21T03:07:28;24.20;46.40
36690;DHT22;22676;51.120;3.702;2023-11-21T03:09:53;24.20;47.00
36690;DHT22;22676;51.120;3.702;2023-11-21T03:12:19;24.30;46.40
36690;DHT22;22676;51.120;3.702;2023-11-21T03:14:45;24.30;46.30
36690;DHT22;22676;51.120;3.702;2023-11-21T03:17:10;24.30;46.30
36690;DHT22;22676;51.120;3.702;2023-11-21T03:19:37;24.30;46.20
36690;DHT22;22676;51.120;3.702;2023-11-21T03:22:03;24.30;46.20
36690;DHT22;22676;51.120;3.702;2023-11-21T03:24:29;24.30;46.10
36690;DHT22;22676;51.120;3.702;2023-11-21T03:26:55;24.20;46.10
36690;DHT22;22676;51.120;3.702;2023-11-21T03:29:21;24.20;46.20
36690;DHT22;22676;51.120;3.702;2023-11-21T03:31:47;24.20;46.30
36690;DHT22;22676;51.120;3.702;2023-11-21T03:34:26;24.20;46.40
36690;DHT22;22676;51.120;3.702;2023-11-21T03:36:52;24.10;46.50
36690;DHT22;22676;51.120;3.702;2023-11-21T03:39:19;24.10;46.60
36690;DHT22;22676;51.120;3.702;2023-11-21T03:41:45;24.10;45.30
36690;DHT22;22676;51.120;3.702;2023-11-21T03:44:11;24.00;45.80
36690;DHT22;22676;51.120;3.702;2023-11-21T03:46:37;23.90;46.40
36690;DHT22;22676;51.120;3.702;2023-11-21T03:49:03;23.80;47.00
36690;DHT22;22676;51.120;3.702;2023-11-21T03:51:28;23.70;47.00
36690;DHT22;22676;51.120;3.702;2023-11-21T03:53:54;23.70;47.10
36690;DHT22;22676;51.120;3.702;2023-11-21T03:56:20;23.70;47.20
36690;DHT22;22676;51.120;3.702;2023-11-21T03:58:48;23.60;47.20
36690;DHT22;22676;51.120;3.702;2023-11-21T04:01:24;23.60;47.30
36690;DHT22;22676;51.120;3.702;2023-11-21T04:03:50;23.60;47.30
36690;DHT22;22676;51.120;3.702;2023-11-21T04:06:17;23.60;47.40
36690;DHT22;22676;51.120;3.702;2023-11-21T04:08:46;23.50;47.50
36690;DHT22;22676;51.120;3.702;2023-11-21T04:11:12;23.50;47.50
36690;DHT22;22676;51.120;3.702;2023-11-21T04:13:39;23.50;47.60
36690;DHT22;22676;51.120;3.702;2023-11-21T04:16:06;23.50;47.70
36690;DHT22;22676;51.120;3.702;2023-11-21T04:18:32;23.50;47.70
36690;DHT22;22676;51.120;3.702;2023-11-21T04:20:57;23.50;47.70
36690;DHT22;22676;51.120;3.702;2023-11-21T04:23:23;23.50;47.80
36690;DHT22;22676;51.120;3.702;2023-11-21T04:25:49;23.40;47.70
36690;DHT22;22676;51.120;3.702;2023-11-21T04:28:15;23.40;47.90
36690;DHT22;22676;51.120;3.702;2023-11-21T04:30:40;23.40;47.90
36690;DHT22;22676;51.120;3.702;2023-11-21T04:33:06;23.40;47.90
36690;DHT22;22676;51.120;3.702;2023-11-21T04:35:33;23.40;48.00
36690;DHT22;22676;51.120;3.702;2023-11-21T04:37:58;23.40;48.00
36690;DHT22;22676;51.120;3.702;2023-11-21T04:40:25;23.40;47.00
36690;DHT22;22676;51.120;3.702;2023-11-21T04:42:52;23.40;46.50
36690;DHT22;22676;51.120;3.702;2023-11-21T04:45:18;23.40;46.60
36690;DHT22;22676;51.120;3.702;2023-11-21T04:47:43;23.20;47.80
36690;DHT22;22676;51.120;3.702;2023-11-21T04:50:10;23.20;48.00
36690;DHT22;22676;51.120;3.702;2023-11-21T04:52:36;23.20;48.00
36690;DHT22;22676;51.120;3.702;2023-11-21T04:55:01;23.20;48.10
36690;DHT22;22676;51.120;3.702;2023-11-21T04:57:28;23.20;48.10
36690;DHT22;22676;51.120;3.702;2023-11-21T04:59:56;23.10;48.10
36690;DHT22;22676;51.120;3.702;2023-11-21T05:02:22;23.10;48.20
36690;DHT22;22676;51.120;3.702;2023-11-21T05:04:47;23.10;48.30
36690;DHT22;22676;51.120;3.702;2023-11-21T05:07:13;23.10;48.40
36690;DHT22;22676;51.120;3.702;2023-11-21T05:09:42;23.00;48.40
36690;DHT22;22676;51.120;3.702;2023-11-21T05:12:14;23.10;48.50
36690;DHT22;22676;51.120;3.702;2023-11-21T05:14:40;23.00;48.50
36690;DHT22;22676;51.120;3.702;2023-11-21T05:17:05;23.00;48.60
36690;DHT22;22676;51.120;3.702;2023-11-21T05:19:33;23.00;48.60
36690;DHT22;22676;51.120;3.702;2023-11-21T05:22:00;23.00;48.60
36690;DHT22;22676;51.120;3.702;2023-11-21T05:24:26;23.00;48.70
36690;DHT22;22676;51.120;3.702;2023-11-21T05:26:52;23.00;48.70
36690;DHT22;22676;51.120;3.702;2023-11-21T05:29:18;23.00;48.70
36690;DHT22;22676;51.120;3.702;2023-11-21T05:31:43;23.00;48.70
36690;DHT22;22676;51.120;3.702;2023-11-21T05:34:09;23.00;48.60
36690;DHT22;22676;51.120;3.702;2023-11-21T05:36:35;23.00;48.60
36690;DHT22;22676;51.120;3.702;2023-11-21T05:39:00;23.00;48.60
36690;DHT22;22676;51.120;3.702;2023-11-21T05:41:26;23.10;47.40
36690;DHT22;22676;51.120;3.702;2023-11-21T05:43:52;23.10;47.20
36690;DHT22;22676;51.120;3.702;2023-11-21T05:46:19;23.10;48.00
36690;DHT22;22676;51.120;3.702;2023-11-21T05:48:45;23.00;48.50
36690;DHT22;22676;51.120;3.702;2023-11-21T05:51:11;23.00;48.50
36690;DHT22;22676;51.120;3.702;2023-11-21T05:53:39;23.00;48.60
36690;DHT22;22676;51.120;3.702;2023-11-21T05:56:05;23.00;48.50
36690;DHT22;22676;51.120;3.702;2023-11-21T05:58:30;23.10;48.60
36690;DHT22;22676;51.120;3.702;2023-11-21T06:00:56;23.10;48.60
36690;DHT22;22676;51.120;3.702;2023-11-21T06:03:23;23.10;49.30
36690;DHT22;22676;51.120;3.702;2023-11-21T06:05:48;23.10;48.70
36690;DHT22;22676;51.120;3.702;2023-11-21T06:08:14;23.10;48.70
36690;DHT22;22676;51.120;3.702;2023-11-21T06:10:42;23.10;48.60
36690;DHT22;22676;51.120;3.702;2023-11-21T06:13:09;23.20;48.60
36690;DHT22;22676;51.120;3.702;2023-11-21T06:15:36;23.20;48.70
36690;DHT22;22676;51.120;3.702;2023-11-21T06:18:01;23.20;48.60
36690;DHT22;22676;51.120;3.702;2023-11-21T06:20:27;23.20;48.60
36690;DHT22;22676;51.120;3.702;2023-11-21T06:22:53;23.20;48.60
36690;DHT22;22676;51.120;3.702;2023-11-21T06:25:19;23.20;48.60
36690;DHT22;22676;51.120;3.702;2023-11-21T06:27:46;23.20;48.50
36690;DHT22;22676;51.120;3.702;2023-11-21T06:30:15;23.20;48.40
36690;DHT22;22676;51.120;3.702;2023-11-21T06:32:42;23.30;48.50
36690;DHT22;22676;51.120;3.702;2023-11-21T06:35:11;23.20;48.40
36690;DHT22;22676;51.120;3.702;2023-11-21T06:37:37;23.30;48.50
36690;DHT22;22676;51.120;3.702;2023-11-21T06:40:03;23.30;47.90
36690;DHT22;22676;51.120;3.702;2023-11-21T06:42:30;23.30;47.10
36690;DHT22;22676;51.120;3.702;2023-11-21T06:44:55;23.20;47.10
36690;DHT22;22676;51.120;3.702;2023-11-21T06:47:24;23.10;48.20
36690;DHT22;22676;51.120;3.702;2023-11-21T06:49:51;23.10;48.40
36690;DHT22;22676;51.120;3.702;2023-11-21T06:52:18;23.10;48.40
36690;DHT22;22676;51.120;3.702;2023-11-21T06:54:43;23.10;48.40
36690;DHT22;22676;51.120;3.702;2023-11-21T06:57:09;23.10;48.40
36690;DHT22;22676;51.120;3.702;2023-11-21T06:59:35;23.10;48.40
36690;DHT22;22676;51.120;3.702;2023-11-21T07:02:01;23.10;48.30
36690;DHT22;22676;51.120;3.702;2023-11-21T07:04:27;23.10;48.30
36690;DHT22;22676;51.120;3.702;2023-11-21T07:06:55;23.20;48.30
36690;DHT22;22676;51.120;3.702;2023-11-21T07:09:21;23.20;48.20
36690;DHT22;22676;51.120;3.702;2023-11-21T07:11:48;23.20;48.20
36690;DHT22;22676;51.120;3.702;2023-11-21T07:14:14;23.20;48.30
36690;DHT22;22676;51.120;3.702;2023-11-21T07:16:40;23.20;48.30
36690;DHT22;22676;51.120;3.702;2023-11-21T07:19:07;23.20;48.30
36690;DHT22;22676;51.120;3.702;2023-11-21T07:21:36;23.20;48.20
36690;DHT22;22676;51.120;3.702;2023-11-21T07:24:03;23.20;48.20
36690;DHT22;22676;51.120;3.702;2023-11-21T07:26:29;23.20;48.20
36690;DHT22;22676;51.120;3.702;2023-11-21T07:28:55;23.20;48.30
36690;DHT22;22676;51.120;3.702;2023-11-21T07:31:22;23.20;48.20
36690;DHT22;22676;51.120;3.702;2023-11-21T07:33:48;23.20;48.00
36690;DHT22;22676;51.120;3.702;2023-11-21T07:36:15;23.20;48.10
36690;DHT22;22676;51.120;3.702;2023-11-21T07:38:42;23.30;48.20
36690;DHT22;22676;51.120;3.702;2023-11-21T07:41:08;23.20;48.00
36690;DHT22;22676;51.120;3.702;2023-11-21T07:43:35;23.10;48.20
36690;DHT22;22676;51.120;3.702;2023-11-21T07:46:02;23.00;48.40
36690;DHT22;22676;51.120;3.702;2023-11-21T07:48:31;23.00;48.60
36690;DHT22;22676;51.120;3.702;2023-11-21T07:50:57;23.00;48.60
36690;DHT22;22676;51.120;3.702;2023-11-21T07:53:26;23.00;48.60
36690;DHT22;22676;51.120;3.702;2023-11-21T07:55:54;23.00;48.60
36690;DHT22;22676;51.120;3.702;2023-11-21T07:58:20;23.10;48.70
36690;DHT22;22676;51.120;3.702;2023-11-21T08:00:46;23.10;48.90
36690;DHT22;22676;51.120;3.702;2023-11-21T08:03:13;23.00;48.80
36690;DHT22;22676;51.120;3.702;2023-11-21T08:05:39;23.00;48.80
36690;DHT22;22676;51.120;3.702;2023-11-21T08:08:05;23.10;48.80
36690;DHT22;22676;51.120;3.702;2023-11-21T08:10:31;23.10;48.60
36690;DHT22;22676;51.120;3.702;2023-11-21T08:12:57;23.10;48.70
36690;DHT22;22676;51.120;3.702;2023-11-21T08:15:23;23.10;48.60
36690;DHT22;22676;51.120;3.702;2023-11-21T08:17:49;23.10;48.70
36690;DHT22;22676;51.120;3.702;2023-11-21T08:20:15;23.10;48.60
36690;DHT22;22676;51.120;3.702;2023-11-21T08:22:44;23.10;48.60
36690;DHT22;22676;51.120;3.702;2023-11-21T08:25:10;23.10;48.50
36690;DHT22;22676;51.120;3.702;2023-11-21T08:27:36;23.10;48.50
36690;DHT22;22676;51.120;3.702;2023-11-21T08:30:05;23.10;48.50
36690;DHT22;22676;51.120;3.702;2023-11-21T08:32:32;23.10;48.60
36690;DHT22;22676;51.120;3.702;2023-11-21T08:35:00;23.10;48.70
36690;DHT22;22676;51.120;3.702;2023-11-21T08:37:25;23.10;48.90
36690;DHT22;22676;51.120;3.702;2023-11-21T08:39:53;23.00;48.60
36690;DHT22;22676;51.120;3.702;2023-11-21T08:42:19;23.00;48.30
36690;DHT22;22676;51.120;3.702;2023-11-21T08:44:45;22.90;48.20
36690;DHT22;22676;51.120;3.702;2023-11-21T08:47:11;22.90;48.00
36690;DHT22;22676;51.120;3.702;2023-11-21T08:49:37;22.90;48.00
36690;DHT22;22676;51.120;3.702;2023-11-21T08:52:03;22.90;48.30
36690;DHT22;22676;51.120;3.702;2023-11-21T08:54:30;22.90;48.40
36690;DHT22;22676;51.120;3.702;2023-11-21T08:56:56;22.80;48.40
36690;DHT22;22676;51.120;3.702;2023-11-21T08:59:24;22.80;48.40
36690;DHT22;22676;51.120;3.702;2023-11-21T09:01:50;22.90;48.50
36690;DHT22;22676;51.120;3.702;2023-11-21T09:04:16;22.90;48.50
36690;DHT22;22676;51.120;3.702;2023-11-21T09:06:42;22.90;48.50
36690;DHT22;22676;51.120;3.702;2023-11-21T09:09:08;22.80;48.50
36690;DHT22;22676;51.120;3.702;2023-11-21T09:11:35;22.80;48.60
36690;DHT22;22676;51.120;3.702;2023-11-21T09:14:02;22.80;49.00
36690;DHT22;22676;51.120;3.702;2023-11-21T09:16:28;22.80;49.20
36690;DHT22;22676;51.120;3.702;2023-11-21T09:18:54;22.80;49.40
36690;DHT22;22676;51.120;3.702;2023-11-21T09:21:20;22.70;49.60
36690;DHT22;22676;51.120;3.702;2023-11-21T09:23:45;22.70;49.80
36690;DHT22;22676;51.120;3.702;2023-11-21T09:26:11;22.60;49.80
36690;DHT22;22676;51.120;3.702;2023-11-21T09:28:37;22.70;49.90
36690;DHT22;22676;51.120;3.702;2023-11-21T09:31:04;22.70;49.90
36690;DHT22;22676;51.120;3.702;2023-11-21T09:33:30;22.70;49.80
36690;DHT22;22676;51.120;3.702;2023-11-21T09:35:56;22.70;49.80
36690;DHT22;22676;51.120;3.702;2023-11-21T09:38:23;22.80;50.40
36690;DHT22;22676;51.120;3.702;2023-11-21T09:40:49;22.80;49.70
36690;DHT22;22676;51.120;3.702;2023-11-21T09:43:18;22.80;49.70
36690;DHT22;22676;51.120;3.702;2023-11-21T09:45:54;22.90;49.60
36690;DHT22;22676;51.120;3.702;2023-11-21T09:48:23;22.90;49.50
36690;DHT22;22676;51.120;3.702;2023-11-21T09:50:50;22.90;49.50
36690;DHT22;22676;51.120;3.702;2023-11-21T09:53:20;23.00;49.60
36690;DHT22;22676;51.120;3.702;2023-11-21T09:55:53;23.00;49.60
36690;DHT22;22676;51.120;3.702;2023-11-21T09:58:20;23.10;49.50
36690;DHT22;22676;51.120;3.702;2023-11-21T10:00:53;23.10;49.40
36690;DHT22;22676;51.120;3.702;2023-11-21T10:03:19;23.20;49.30
36690;DHT22;22676;51.120;3.702;2023-11-21T10:05:45;23.20;49.20
36690;DHT22;22676;51.120;3.702;2023-11-21T10:08:13;23.20;49.10
36690;DHT22;22676;51.120;3.702;2023-11-21T10:10:43;23.30;48.90
36690;DHT22;22676;51.120;3.702;2023-11-21T10:13:14;23.40;48.70
36690;DHT22;22676;51.120;3.702;2023-11-21T10:15:42;23.50;48.60
36690;DHT22;22676;51.120;3.702;2023-11-21T10:18:14;23.50;48.40
36690;DHT22;22676;51.120;3.702;2023-11-21T10:20:41;23.60;48.50
36690;DHT22;22676;51.120;3.702;2023-11-21T10:23:08;23.70;48.40
36690;DHT22;22676;51.120;3.702;2023-11-21T10:25:37;23.70;48.20
36690;DHT22;22676;51.120;3.702;2023-11-21T10:28:04;23.70;48.10
36690;DHT22;22676;51.120;3.702;2023-11-21T10:30:38;23.60;48.30
36690;DHT22;22676;51.120;3.702;2023-11-21T10:33:04;23.70;48.20
36690;DHT22;22676;51.120;3.702;2023-11-21T10:35:46;23.60;48.30
36690;DHT22;22676;51.120;3.702;2023-11-21T10:38:13;23.60;48.30
36690;DHT22;22676;51.120;3.702;2023-11-21T10:40:40;23.50;48.40
36690;DHT22;22676;51.120;3.702;2023-11-21T10:43:07;23.50;48.40
36690;DHT22;22676;51.120;3.702;2023-11-21T10:45:39;23.40;48.40
36690;DHT22;22676;51.120;3.702;2023-11-21T10:48:06;23.40;48.50
36690;DHT22;22676;51.120;3.702;2023-11-21T10:50:37;23.30;48.40
36690;DHT22;22676;51.120;3.702;2023-11-21T10:53:03;23.30;48.50
36690;DHT22;22676;51.120;3.702;2023-11-21T10:55:30;23.20;48.40
36690;DHT22;22676;51.120;3.702;2023-11-21T10:57:59;23.20;48.50
36690;DHT22;22676;51.120;3.702;2023-11-21T11:00:26;23.10;48.60
36690;DHT22;22676;51.120;3.702;2023-11-21T11:02:54;23.10;48.80
36690;DHT22;22676;51.120;3.702;2023-11-21T11:05:25;23.00;49.40
36690;DHT22;22676;51.120;3.702;2023-11-21T11:07:59;23.00;49.00
36690;DHT22;22676;51.120;3.702;2023-11-21T11:10:28;22.90;49.00
36690;DHT22;22676;51.120;3.702;2023-11-21T11:12:55;22.80;49.20
36690;DHT22;22676;51.120;3.702;2023-11-21T11:15:23;22.80;49.30
36690;DHT22;22676;51.120;3.702;2023-11-21T11:17:49;22.80;49.30
36690;DHT22;22676;51.120;3.702;2023-11-21T11:20:16;22.70;49.50
36690;DHT22;22676;51.120;3.702;2023-11-21T11:25:43;22.70;49.70
36690;DHT22;22676;51.120;3.702;2023-11-21T11:28:29;22.60;49.60
36690;DHT22;22676;51.120;3.702;2023-11-21T11:34:13;22.60;49.90
36690;DHT22;22676;51.120;3.702;2023-11-21T11:36:49;22.60;50.00
36690;DHT22;22676;51.120;3.702;2023-11-21T11:39:43;22.50;49.40
36690;DHT22;22676;51.120;3.702;2023-11-21T11:42:13;22.50;48.80
36690;DHT22;22676;51.120;3.702;2023-11-21T11:47:23;22.30;48.90
36690;DHT22;22676;51.120;3.702;2023-11-21T11:50:01;22.30;49.00
36690;DHT22;22676;51.120;3.702;2023-11-21T11:52:40;22.30;49.10
36690;DHT22;22676;51.120;3.702;2023-11-21T11:55:11;22.30;49.30
36690;DHT22;22676;51.120;3.702;2023-11-21T11:57:38;22.30;49.30
36690;DHT22;22676;51.120;3.702;2023-11-21T12:00:08;22.20;49.30
36690;DHT22;22676;51.120;3.702;2023-11-21T12:02:40;22.20;49.30
36690;DHT22;22676;51.120;3.702;2023-11-21T12:05:14;22.20;49.40
36690;DHT22;22676;51.120;3.702;2023-11-21T12:10:12;22.20;49.30
36690;DHT22;22676;51.120;3.702;2023-11-21T12:12:42;22.20;49.50
36690;DHT22;22676;51.120;3.702;2023-11-21T12:15:09;22.20;49.40
36690;DHT22;22676;51.120;3.702;2023-11-21T12:17:34;22.20;49.50
36690;DHT22;22676;51.120;3.702;2023-11-21T12:20:04;22.10;49.40
36690;DHT22;22676;51.120;3.702;2023-11-21T12:22:31;22.20;49.50
36690;DHT22;22676;51.120;3.702;2023-11-21T12:24:57;22.10;49.50
36690;DHT22;22676;51.120;3.702;2023-11-21T12:27:22;22.10;49.60
36690;DHT22;22676;51.120;3.702;2023-11-21T12:29:48;22.10;49.60
36690;DHT22;22676;51.120;3.702;2023-11-21T12:32:14;22.10;49.60
36690;DHT22;22676;51.120;3.702;2023-11-21T12:34:41;22.00;49.60
36690;DHT22;22676;51.120;3.702;2023-11-21T12:37:07;22.00;49.60
36690;DHT22;22676;51.120;3.702;2023-11-21T12:39:33;22.00;49.60
36690;DHT22;22676;51.120;3.702;2023-11-21T12:41:59;22.00;49.50
36690;DHT22;22676;51.120;3.702;2023-11-21T12:44:25;22.00;49.70
36690;DHT22;22676;51.120;3.702;2023-11-21T12:46:51;22.00;49.70
36690;DHT22;22676;51.120;3.702;2023-11-21T12:49:18;22.00;49.80
36690;DHT22;22676;51.120;3.702;2023-11-21T12:51:47;22.00;49.70
36690;DHT22;22676;51.120;3.702;2023-11-21T12:54:13;22.00;49.70
36690;DHT22;22676;51.120;3.702;2023-11-21T12:56:39;22.00;49.70
36690;DHT22;22676;51.120;3.702;2023-11-21T12:59:05;22.00;49.80
36690;DHT22;22676;51.120;3.702;2023-11-21T13:01:30;22.00;49.80
36690;DHT22;22676;51.120;3.702;2023-11-21T13:03:58;21.90;49.80
36690;DHT22;22676;51.120;3.702;2023-11-21T13:06:27;22.00;49.80
36690;DHT22;22676;51.120;3.702;2023-11-21T13:08:56;21.90;49.70
36690;DHT22;22676;51.120;3.702;2023-11-21T13:11:22;21.90;49.70
36690;DHT22;22676;51.120;3.702;2023-11-21T13:13:51;22.00;49.70
36690;DHT22;22676;51.120;3.702;2023-11-21T13:16:18;22.00;49.80
36690;DHT22;22676;51.120;3.702;2023-11-21T13:18:46;22.00;49.80
36690;DHT22;22676;51.120;3.702;2023-11-21T13:21:12;22.00;49.80
36690;DHT22;22676;51.120;3.702;2023-11-21T13:23:43;22.00;49.80
36690;DHT22;22676;51.120;3.702;2023-11-21T13:26:11;21.90;49.80
36690;DHT22;22676;51.120;3.702;2023-11-21T13:28:37;22.00;49.90
36690;DHT22;22676;51.120;3.702;2023-11-21T13:31:04;21.90;49.80
36690;DHT22;22676;51.120;3.702;2023-11-21T13:33:49;21.90;49.80
36690;DHT22;22676;51.120;3.702;2023-11-21T13:36:21;21.90;49.80
36690;DHT22;22676;51.120;3.702;2023-11-21T13:38:51;21.90;50.30
36690;DHT22;22676;51.120;3.702;2023-11-21T13:41:20;21.90;49.70
36690;DHT22;22676;51.120;3.702;2023-11-21T13:43:53;21.90;49.80
36690;DHT22;22676;51.120;3.702;2023-11-21T13:46:25;21.90;49.70
36690;DHT22;22676;51.120;3.702;2023-11-21T13:48:51;21.90;49.70
36690;DHT22;22676;51.120;3.702;2023-11-21T13:51:21;21.90;49.50
36690;DHT22;22676;51.120;3.702;2023-11-21T13:53:56;22.00;49.40
36690;DHT22;22676;51.120;3.702;2023-11-21T13:56:21;22.00;49.40
36690;DHT22;22676;51.120;3.702;2023-11-21T13:58:51;22.00;49.30
36690;DHT22;22676;51.120;3.702;2023-11-21T14:01:24;22.10;49.30
36690;DHT22;22676;51.120;3.702;2023-11-21T14:03:50;22.10;49.10
36690;DHT22;22676;51.120;3.702;2023-11-21T14:06:22;22.20;49.10
36690;DHT22;22676;51.120;3.702;2023-11-21T14:08:53;22.10;49.10
36690;DHT22;22676;51.120;3.702;2023-11-21T14:11:22;22.10;49.00
36690;DHT22;22676;51.120;3.702;2023-11-21T14:13:47;22.20;49.30
36690;DHT22;22676;51.120;3.702;2023-11-21T14:16:14;22.20;49.00
36690;DHT22;22676;51.120;3.702;2023-11-21T14:18:42;22.20;48.90
36690;DHT22;22676;51.120;3.702;2023-11-21T14:21:18;22.30;48.90
36690;DHT22;22676;51.120;3.702;2023-11-21T14:23:44;22.30;48.80
36690;DHT22;22676;51.120;3.702;2023-11-21T14:26:11;22.40;48.70
36690;DHT22;22676;51.120;3.702;2023-11-21T14:28:39;22.40;48.70
36690;DHT22;22676;51.120;3.702;2023-11-21T14:31:05;22.40;48.70
36690;DHT22;22676;51.120;3.702;2023-11-21T14:33:30;22.40;48.70
36690;DHT22;22676;51.120;3.702;2023-11-21T14:35:56;22.40;48.70
36690;DHT22;22676;51.120;3.702;2023-11-21T14:38:23;22.40;48.50
36690;DHT22;22676;51.120;3.702;2023-11-21T14:40:48;22.50;48.50
36690;DHT22;22676;51.120;3.702;2023-11-21T14:43:15;22.50;48.40
36690;DHT22;22676;51.120;3.702;2023-11-21T14:45:41;22.50;48.40
36690;DHT22;22676;51.120;3.702;2023-11-21T14:48:07;22.50;48.80
36690;DHT22;22676;51.120;3.702;2023-11-21T14:50:42;22.50;48.20
36690;DHT22;22676;51.120;3.702;2023-11-21T14:53:09;22.50;48.20
36690;DHT22;22676;51.120;3.702;2023-11-21T14:55:35;22.50;48.40
36690;DHT22;22676;51.120;3.702;2023-11-21T14:58:19;22.50;48.30
36690;DHT22;22676;51.120;3.702;2023-11-21T15:01:04;22.50;48.70
36690;DHT22;22676;51.120;3.702;2023-11-21T15:03:30;22.50;48.00
36690;DHT22;22676;51.120;3.702;2023-11-21T15:05:59;22.50;47.80
36690;DHT22;22676;51.120;3.702;2023-11-21T15:08:27;22.60;47.70
36690;DHT22;22676;51.120;3.702;2023-11-21T15:10:57;22.80;47.70
36690;DHT22;22676;51.120;3.702;2023-11-21T15:13:23;22.70;47.50
36690;DHT22;22676;51.120;3.702;2023-11-21T15:15:51;22.70;47.40
36690;DHT22;22676;51.120;3.702;2023-11-21T15:18:22;22.80;47.50
36690;DHT22;22676;51.120;3.702;2023-11-21T15:20:49;22.80;47.50
36690;DHT22;22676;51.120;3.702;2023-11-21T15:23:15;22.70;47.30
36690;DHT22;22676;51.120;3.702;2023-11-21T15:25:45;22.70;47.30
36690;DHT22;22676;51.120;3.702;2023-11-21T15:28:10;22.70;47.30
36690;DHT22;22676;51.120;3.702;2023-11-21T15:30:36;22.80;47.20
36690;DHT22;22676;51.120;3.702;2023-11-21T15:33:02;22.80;47.10
36690;DHT22;22676;51.120;3.702;2023-11-21T15:35:29;22.80;47.00
36690;DHT22;22676;51.120;3.702;2023-11-21T15:37:55;22.80;47.10
36690;DHT22;22676;51.120;3.702;2023-11-21T15:40:24;22.80;47.00
36690;DHT22;22676;51.120;3.702;2023-11-21T15:42:50;22.80;47.10